createdAt,value
2022-12-14T00:01:25.585Z,4.95
2022-12-14T00:03:53.575Z,4.00
2022-12-14T00:06:26.215Z,4.05
2022-12-14T00:08:55.462Z,3.88
2022-12-14T00:11:23.250Z,4.45
2022-12-14T00:13:58.471Z,4.35
2022-12-14T00:16:27.687Z,4.18
2022-12-14T00:18:56.064Z,4.00
2022-12-14T00:21:23.471Z,4.57
2022-12-14T00:23:51.937Z,2.80
2022-12-14T00:26:27.720Z,4.75
2022-12-14T00:28:55.990Z,5.43
2022-12-14T00:31:24.176Z,3.80
2022-12-14T00:33:51.767Z,4.00
2022-12-14T00:36:19.224Z,5.40
2022-12-14T00:38:46.113Z,4.70
2022-12-14T00:41:13.134Z,4.15
2022-12-14T00:43:40.716Z,4.22
2022-12-14T00:46:07.886Z,3.25
2022-12-14T00:48:35.278Z,3.25
2022-12-14T00:51:02.508Z,4.55
2022-12-14T00:53:29.458Z,3.88
2022-12-14T00:55:56.287Z,3.80
2022-12-14T00:58:25.119Z,3.75
2022-12-14T01:01:02.195Z,5.00
2022-12-14T01:03:32.872Z,4.43
2022-12-14T01:06:00.211Z,3.30
2022-12-14T01:08:35.574Z,3.47
2022-12-14T01:11:10.065Z,4.25
2022-12-14T01:13:38.022Z,3.63
2022-12-14T01:16:15.187Z,4.43
2022-12-14T01:18:43.313Z,4.60
2022-12-14T01:21:19.276Z,3.92
2022-12-14T01:23:47.161Z,3.65
2022-12-14T01:26:15.752Z,5.03
2022-12-14T01:28:42.779Z,4.55
2022-12-14T01:31:12.464Z,5.20
2022-12-14T01:33:40.104Z,4.57
2022-12-14T01:36:08.537Z,4.47
2022-12-14T01:38:35.884Z,3.08
2022-12-14T01:41:03.042Z,3.67
2022-12-14T01:43:46.190Z,5.05
2022-12-14T01:46:21.457Z,5.03
2022-12-14T01:48:51.420Z,7.93
2022-12-14T01:51:18.592Z,2.92
2022-12-14T01:53:47.011Z,3.00
2022-12-14T01:56:14.379Z,3.05
2022-12-14T01:58:41.390Z,4.05
2022-12-14T02:01:08.474Z,3.15
2022-12-14T02:03:43.903Z,3.00
2022-12-14T02:06:25.932Z,3.60
2022-12-14T02:08:54.829Z,3.30
2022-12-14T02:11:42.858Z,3.83
2022-12-14T02:14:09.651Z,4.47
2022-12-14T02:16:37.109Z,4.38
2022-12-14T02:19:03.933Z,3.95
2022-12-14T02:21:56.246Z,4.07
2022-12-14T02:24:38.931Z,3.17
2022-12-14T02:27:31.519Z,3.67
2022-12-14T02:30:05.071Z,2.90
2022-12-14T02:32:46.334Z,2.80
2022-12-14T02:35:33.877Z,3.88
2022-12-14T02:38:22.498Z,2.75
2022-12-14T02:40:58.677Z,2.85
2022-12-14T02:44:07.071Z,2.85
2022-12-14T02:47:08.313Z,3.10
2022-12-14T02:50:02.577Z,2.60
2022-12-14T02:53:04.731Z,2.03
2022-12-14T02:55:36.152Z,2.55
2022-12-14T02:58:24.031Z,2.67
2022-12-14T03:00:52.778Z,1.73
2022-12-14T03:03:19.622Z,2.53
2022-12-14T03:05:59.228Z,3.83
2022-12-14T03:08:27.814Z,2.55
2022-12-14T03:11:00.527Z,1.88
2022-12-14T03:13:32.937Z,2.13
2022-12-14T03:16:20.782Z,2.03
2022-12-14T03:19:10.799Z,2.60
2022-12-14T03:21:44.316Z,2.10
2022-12-14T03:24:14.392Z,2.45
2022-12-14T03:26:47.680Z,2.33
2022-12-14T03:29:30.379Z,4.22
2022-12-14T03:32:02.397Z,3.05
2022-12-14T03:34:35.503Z,3.80
2022-12-14T03:37:12.968Z,4.22
2022-12-14T03:39:42.488Z,2.97
2022-12-14T03:42:39.120Z,2.28
2022-12-14T03:45:21.005Z,2.08
2022-12-14T03:48:23.104Z,4.05
2022-12-14T03:51:14.534Z,1.65
2022-12-14T03:54:04.286Z,3.17
2022-12-14T03:56:52.741Z,2.13
2022-12-14T03:59:54.385Z,1.98
2022-12-14T04:02:29.541Z,1.65
2022-12-14T04:05:15.184Z,1.88
2022-12-14T04:07:56.055Z,1.95
2022-12-14T04:10:47.520Z,1.98
2022-12-14T04:13:41.746Z,2.85
2022-12-14T04:16:32.096Z,1.92
2022-12-14T04:19:02.747Z,2.63
2022-12-14T04:21:48.052Z,2.33
2022-12-14T04:25:08.981Z,2.10
2022-12-14T04:27:38.842Z,1.58
2022-12-14T04:30:08.889Z,1.60
2022-12-14T04:32:44.406Z,1.75
2022-12-14T04:35:39.884Z,3.00
2022-12-14T04:38:23.919Z,2.65
2022-12-14T04:41:01.701Z,3.15
2022-12-14T04:43:31.669Z,3.30
2022-12-14T04:46:04.980Z,3.88
2022-12-14T04:48:38.583Z,2.72
2022-12-14T04:51:21.922Z,2.00
2022-12-14T04:53:52.748Z,1.80
2022-12-14T04:56:33.375Z,3.58
2022-12-14T04:59:00.500Z,3.95
2022-12-14T05:01:48.883Z,4.18
2022-12-14T05:04:55.198Z,5.25
2022-12-14T05:07:29.308Z,5.18
2022-12-14T05:10:19.099Z,5.95
2022-12-14T05:12:56.400Z,4.88
2022-12-14T05:15:30.712Z,5.25
2022-12-14T05:18:03.021Z,5.07
2022-12-14T05:20:29.910Z,5.45
2022-12-14T05:22:56.702Z,6.70
2022-12-14T05:25:23.541Z,7.53
2022-12-14T05:27:50.330Z,5.75
2022-12-14T05:30:17.206Z,5.68
2022-12-14T05:32:43.992Z,8.30
2022-12-14T05:35:13.857Z,5.22
2022-12-14T05:37:42.084Z,6.85
2022-12-14T05:40:09.961Z,5.22
2022-12-14T05:42:41.042Z,5.57
2022-12-14T05:45:14.934Z,4.90
2022-12-14T05:47:41.736Z,5.95
2022-12-14T05:50:09.441Z,4.65
2022-12-14T05:52:36.250Z,7.10
2022-12-14T05:55:04.778Z,7.60
2022-12-14T05:57:32.163Z,6.15
2022-12-14T05:59:58.942Z,5.45
2022-12-14T06:02:25.936Z,5.95
2022-12-14T06:04:52.857Z,5.82
2022-12-14T06:07:23.123Z,4.20
2022-12-14T06:09:55.441Z,6.30
2022-12-14T06:12:22.455Z,7.18
2022-12-14T06:14:49.253Z,5.40
2022-12-14T06:17:16.102Z,6.82
2022-12-14T06:19:43.282Z,7.20
2022-12-14T06:22:16.883Z,8.48
2022-12-14T06:24:43.659Z,6.38
2022-12-14T06:27:10.447Z,8.52
2022-12-14T06:29:37.201Z,7.40
2022-12-14T06:32:04.040Z,9.52
2022-12-14T06:34:34.101Z,9.43
2022-12-14T06:37:06.247Z,9.07
2022-12-14T06:39:33.191Z,5.78
2022-12-14T06:41:59.958Z,6.95
2022-12-14T06:44:26.745Z,9.63
2022-12-14T06:46:53.565Z,12.10
2022-12-14T06:49:20.420Z,8.93
2022-12-14T06:51:47.345Z,7.43
2022-12-14T06:54:15.925Z,6.70
2022-12-14T06:56:44.761Z,6.40
2022-12-14T06:59:13.133Z,5.43
2022-12-14T07:01:40.984Z,5.28
2022-12-14T07:04:08.398Z,4.10
2022-12-14T07:06:38.378Z,7.15
2022-12-14T07:09:07.068Z,4.28
2022-12-14T07:11:34.229Z,5.78
2022-12-14T07:14:03.175Z,6.22
2022-12-14T07:16:29.962Z,6.78
2022-12-14T07:18:57.284Z,4.97
2022-12-14T07:21:25.163Z,4.45
2022-12-14T07:23:52.615Z,7.25
2022-12-14T07:26:26.068Z,9.73
2022-12-14T07:28:53.856Z,6.28
2022-12-14T07:31:26.502Z,9.00
2022-12-14T07:33:55.185Z,4.35
2022-12-14T07:36:23.706Z,5.20
2022-12-14T07:38:51.997Z,3.80
2022-12-14T07:41:24.433Z,5.78
2022-12-14T07:43:54.725Z,9.48
2022-12-14T07:46:26.820Z,9.30
2022-12-14T07:48:56.194Z,10.32
2022-12-14T07:51:31.365Z,9.77
2022-12-14T07:53:59.140Z,9.48
2022-12-14T07:56:32.116Z,8.18
2022-12-14T07:59:00.521Z,7.07
2022-12-14T08:01:33.080Z,8.63
2022-12-14T08:04:06.352Z,8.88
2022-12-14T08:06:34.563Z,9.13
2022-12-14T08:09:01.584Z,8.73
2022-12-14T08:11:29.426Z,10.68
2022-12-14T08:14:19.304Z,8.32
2022-12-14T08:16:47.174Z,7.90
2022-12-14T08:19:14.946Z,6.63
2022-12-14T08:21:42.070Z,7.75
2022-12-14T08:24:12.028Z,7.40
2022-12-14T08:26:39.397Z,8.77
2022-12-14T08:29:06.916Z,7.35
2022-12-14T08:31:34.304Z,7.88
2022-12-14T08:34:02.652Z,8.25
2022-12-14T08:36:34.187Z,7.25
2022-12-14T08:39:07.126Z,5.45
2022-12-14T08:41:34.406Z,10.25
2022-12-14T08:44:03.127Z,8.32
2022-12-14T08:46:32.085Z,7.15
2022-12-14T08:48:59.320Z,6.40
2022-12-14T08:51:27.410Z,10.07
2022-12-14T08:53:55.179Z,11.20
2022-12-14T08:56:24.474Z,10.38
2022-12-14T08:58:51.374Z,10.95
2022-12-14T09:01:21.433Z,7.20
2022-12-14T09:03:49.614Z,8.60
2022-12-14T09:06:20.285Z,7.35
2022-12-14T09:08:49.964Z,5.40
2022-12-14T09:11:19.333Z,6.15
2022-12-14T09:13:46.953Z,6.07
2022-12-14T09:16:20.240Z,8.25
2022-12-14T09:18:48.815Z,8.18
2022-12-14T09:21:16.396Z,8.57
2022-12-14T09:23:43.296Z,10.82
2022-12-14T09:26:10.008Z,9.07
2022-12-14T09:28:38.507Z,9.77
2022-12-14T09:31:07.961Z,10.10
2022-12-14T09:33:34.867Z,12.50
2022-12-14T09:36:09.459Z,10.32
2022-12-14T09:38:37.840Z,11.95
2022-12-14T09:41:07.601Z,11.60
2022-12-14T09:43:53.350Z,15.60
2022-12-14T09:46:39.728Z,12.88
2022-12-14T09:49:30.062Z,14.60
2022-12-14T09:52:02.311Z,12.65
2022-12-14T09:54:33.543Z,15.45
2022-12-14T09:57:19.208Z,14.95
2022-12-14T09:59:45.929Z,16.90
2022-12-14T10:02:31.566Z,17.38
2022-12-14T10:05:25.263Z,11.27
2022-12-14T10:08:09.779Z,11.80
2022-12-14T10:10:51.233Z,12.57
2022-12-14T10:13:36.367Z,11.68
2022-12-14T10:16:27.884Z,14.30
2022-12-14T10:19:04.145Z,10.23
2022-12-14T10:21:57.474Z,15.50
2022-12-14T10:24:34.090Z,11.23
2022-12-14T10:27:02.825Z,11.98
2022-12-14T10:29:39.563Z,12.00
2022-12-14T10:32:30.314Z,14.93
2022-12-14T10:34:57.385Z,14.00
2022-12-14T10:37:35.168Z,12.77
2022-12-14T10:40:22.149Z,13.00
2022-12-14T10:43:11.275Z,10.77
2022-12-14T10:45:41.848Z,10.40
2022-12-14T10:48:24.721Z,10.52
2022-12-14T10:51:00.893Z,12.90
2022-12-14T10:53:51.915Z,13.70
2022-12-14T10:56:40.732Z,11.85
2022-12-14T10:59:22.207Z,11.30
2022-12-14T11:01:53.407Z,10.25
2022-12-14T11:04:44.791Z,11.98
2022-12-14T11:07:13.450Z,10.23
2022-12-14T11:09:40.535Z,11.63
2022-12-14T11:12:13.173Z,12.23
2022-12-14T11:14:59.628Z,14.93
2022-12-14T11:17:41.576Z,12.07
2022-12-14T11:20:24.283Z,10.90
2022-12-14T11:22:56.576Z,9.20
2022-12-14T11:25:38.581Z,9.52
2022-12-14T11:28:35.967Z,11.15
2022-12-14T11:31:13.517Z,12.25
2022-12-14T11:33:50.325Z,10.52
2022-12-14T11:36:37.025Z,11.50
2022-12-14T11:39:12.959Z,12.38
2022-12-14T11:41:47.109Z,11.90
2022-12-14T11:44:16.579Z,11.77
2022-12-14T11:46:53.587Z,9.93
2022-12-14T11:49:49.576Z,10.73
2022-12-14T11:52:25.361Z,10.05
2022-12-14T11:54:55.241Z,9.63
2022-12-14T11:57:29.944Z,11.02
2022-12-14T12:00:04.399Z,12.27
2022-12-14T12:02:35.685Z,12.27
2022-12-14T12:05:17.236Z,12.75
2022-12-14T12:07:51.268Z,15.85
2022-12-14T12:10:22.405Z,13.52
2022-12-14T12:12:59.600Z,14.05
2022-12-14T12:15:52.215Z,12.23
2022-12-14T12:18:45.831Z,11.98
2022-12-14T12:21:21.622Z,11.70
2022-12-14T12:24:09.892Z,8.75
2022-12-14T12:26:56.930Z,9.48
2022-12-14T12:29:52.571Z,11.85
2022-12-14T12:32:34.023Z,9.27
2022-12-14T12:35:17.185Z,12.20
2022-12-14T12:37:57.372Z,10.27
2022-12-14T12:40:43.009Z,10.13
2022-12-14T12:43:24.012Z,9.93
2022-12-14T12:46:25.583Z,8.88
2022-12-14T12:49:06.883Z,11.13
2022-12-14T12:51:59.024Z,10.68
2022-12-14T12:54:36.114Z,11.25
2022-12-14T12:57:05.514Z,9.48
2022-12-14T12:59:45.431Z,14.15
2022-12-14T13:02:38.174Z,12.45
2022-12-14T13:08:25.697Z,10.15
2022-12-14T13:11:24.981Z,9.25
2022-12-14T13:13:51.679Z,9.20
2022-12-14T13:16:32.906Z,7.15
2022-12-14T13:19:40.601Z,8.15
2022-12-14T13:22:03.300Z,8.80
2022-12-14T13:24:32.274Z,9.98
2022-12-14T13:27:17.688Z,10.18
2022-12-14T13:30:20.726Z,6.38
2022-12-14T13:32:56.324Z,8.77
2022-12-14T13:35:41.180Z,7.07
2022-12-14T13:38:40.750Z,8.20
2022-12-14T13:41:26.841Z,7.20
2022-12-14T13:44:40.233Z,7.10
2022-12-14T13:47:36.970Z,7.47
2022-12-14T13:52:58.884Z,8.35
2022-12-14T13:55:31.066Z,8.93
2022-12-14T13:58:18.922Z,6.43
2022-12-14T14:00:45.736Z,8.25
2022-12-14T14:03:54.472Z,9.32
2022-12-14T14:06:48.932Z,6.18
2022-12-14T14:09:30.172Z,8.80
2022-12-14T14:12:18.822Z,9.32
2022-12-14T14:15:10.269Z,7.35
2022-12-14T14:17:40.438Z,7.30
2022-12-14T14:20:32.801Z,6.22
2022-12-14T14:23:15.333Z,5.10
2022-12-14T14:26:13.705Z,5.32
2022-12-14T14:28:41.468Z,5.95
2022-12-14T14:31:08.651Z,4.53
2022-12-14T14:33:49.741Z,6.70
2022-12-14T14:36:23.390Z,4.07
2022-12-14T14:38:51.141Z,4.07
2022-12-14T14:41:30.358Z,4.72
2022-12-14T14:44:03.030Z,3.13
2022-12-14T14:46:37.783Z,4.68
2022-12-14T14:49:06.793Z,5.50
2022-12-14T14:51:36.089Z,4.40
2022-12-14T14:54:56.280Z,3.55
2022-12-14T14:57:55.349Z,3.63
2022-12-14T15:00:25.341Z,2.88
2022-12-14T15:02:54.603Z,5.07
2022-12-14T15:05:43.095Z,3.63
2022-12-14T15:08:24.197Z,3.72
2022-12-14T15:10:52.463Z,3.95
2022-12-14T15:13:28.578Z,4.50
2022-12-14T15:15:58.798Z,5.40
2022-12-14T15:18:27.688Z,5.75
2022-12-14T15:21:07.860Z,4.57
2022-12-14T15:23:49.549Z,3.58
2022-12-14T15:26:27.635Z,3.75
2022-12-14T15:28:58.330Z,3.35
2022-12-14T15:31:40.299Z,3.08
2022-12-14T15:34:14.938Z,3.80
2022-12-14T15:36:44.914Z,4.22
2022-12-14T15:39:39.345Z,2.70
2022-12-14T15:42:13.594Z,3.47
2022-12-14T15:44:53.131Z,4.07
2022-12-14T15:47:29.480Z,2.95
2022-12-14T15:50:15.703Z,3.38
2022-12-14T15:52:43.775Z,2.95
2022-12-14T15:55:32.607Z,2.72
2022-12-14T15:58:30.747Z,2.20
2022-12-14T16:01:19.945Z,3.25
2022-12-14T16:03:52.739Z,3.25
2022-12-14T16:06:20.494Z,4.03
2022-12-14T16:09:19.071Z,2.03
2022-12-14T16:11:52.468Z,2.15
2022-12-14T16:14:49.668Z,3.15
2022-12-14T16:17:21.772Z,3.75
2022-12-14T16:19:59.921Z,3.38
2022-12-14T16:22:32.065Z,1.83
2022-12-14T16:25:03.739Z,3.75
2022-12-14T16:27:31.512Z,3.65
2022-12-14T16:30:06.044Z,2.97
2022-12-14T16:32:37.293Z,2.30
2022-12-14T16:35:18.902Z,1.73
2022-12-14T16:37:48.805Z,3.08
2022-12-14T16:40:38.033Z,2.53
2022-12-14T16:43:07.580Z,4.18
2022-12-14T16:45:43.631Z,3.80
2022-12-14T16:48:17.082Z,3.88
2022-12-14T16:51:04.970Z,4.32
2022-12-14T16:53:32.424Z,3.63
2022-12-14T16:56:15.484Z,3.38
2022-12-14T16:59:00.827Z,3.65
2022-12-14T17:01:28.800Z,2.95
2022-12-14T17:04:03.137Z,4.47
2022-12-14T17:06:42.592Z,3.33
2022-12-14T17:09:21.678Z,3.35
2022-12-14T17:11:49.723Z,3.53
2022-12-14T17:14:17.680Z,2.45
2022-12-14T17:16:50.051Z,2.80
2022-12-14T17:19:30.645Z,2.92
2022-12-14T17:21:57.891Z,3.13
2022-12-14T17:24:25.105Z,3.30
2022-12-14T17:26:52.641Z,4.57
2022-12-14T17:29:28.629Z,6.20
2022-12-14T17:32:01.078Z,8.65
2022-12-14T17:34:29.891Z,8.60
2022-12-14T17:36:57.393Z,9.05
2022-12-14T17:39:24.925Z,7.13
2022-12-14T17:41:51.968Z,6.95
2022-12-14T17:44:20.542Z,8.95
2022-12-14T17:46:52.160Z,8.35
2022-12-14T17:49:34.339Z,6.75
2022-12-14T17:52:07.221Z,6.00
2022-12-14T17:54:34.761Z,4.35
2022-12-14T17:57:02.040Z,5.30
2022-12-14T17:59:29.084Z,5.90
2022-12-14T18:01:56.250Z,5.30
2022-12-14T18:04:23.299Z,7.88
2022-12-14T18:06:50.500Z,9.85
2022-12-14T18:09:18.721Z,8.57
2022-12-14T18:12:14.337Z,7.68
2022-12-14T18:14:32.767Z,6.15
2022-12-14T18:17:01.816Z,6.43
2022-12-14T18:19:29.911Z,9.65
2022-12-14T18:21:56.732Z,9.20
2022-12-14T18:24:26.106Z,6.30
2022-12-14T18:26:53.203Z,7.20
2022-12-14T18:29:20.338Z,8.57
2022-12-14T18:31:49.484Z,7.82
2022-12-14T18:34:17.072Z,6.95
2022-12-14T18:36:44.118Z,7.75
2022-12-14T18:39:10.913Z,8.55
2022-12-14T18:41:37.663Z,8.63
2022-12-14T18:44:04.866Z,8.90
2022-12-14T18:46:31.687Z,7.22
2022-12-14T18:48:58.650Z,6.78
2022-12-14T18:51:26.942Z,6.95
2022-12-14T18:53:55.312Z,6.18
2022-12-14T18:56:23.532Z,5.93
2022-12-14T18:58:50.819Z,3.13
2022-12-14T19:01:21.592Z,6.57
2022-12-14T19:03:49.017Z,7.22
2022-12-14T19:09:05.402Z,6.65
2022-12-14T19:11:35.215Z,7.60
2022-12-14T19:14:02.405Z,5.82
2022-12-14T19:16:29.557Z,5.93
2022-12-14T19:18:56.921Z,6.68
2022-12-14T19:21:25.480Z,6.03
2022-12-14T19:23:52.793Z,7.43
2022-12-14T19:26:19.630Z,8.20
2022-12-14T19:28:46.463Z,7.32
2022-12-14T19:31:13.593Z,6.25
2022-12-14T19:33:40.419Z,7.65
2022-12-14T19:36:08.651Z,4.82
2022-12-14T19:38:36.998Z,4.60
2022-12-14T19:41:10.632Z,7.85
2022-12-14T19:43:37.559Z,8.35
2022-12-14T19:46:09.248Z,7.03
2022-12-14T19:48:37.998Z,8.07
2022-12-14T19:51:10.628Z,6.00
2022-12-14T19:53:39.077Z,4.60
2022-12-14T19:56:06.207Z,6.10
2022-12-14T19:58:33.354Z,7.25
2022-12-14T20:01:00.605Z,11.82
2022-12-14T20:03:28.306Z,14.90
2022-12-14T20:05:58.703Z,11.73
2022-12-14T20:08:27.207Z,10.45
2022-12-14T20:10:54.437Z,8.30
2022-12-14T20:13:23.565Z,6.13
2022-12-14T20:15:55.346Z,5.72
2022-12-14T20:18:22.727Z,5.07
2022-12-14T20:20:50.453Z,5.60
2022-12-14T20:23:22.130Z,5.78
2022-12-14T20:25:49.187Z,7.13
2022-12-14T20:28:16.129Z,10.27
2022-12-14T20:30:47.831Z,7.55
2022-12-14T20:33:14.675Z,8.75
2022-12-14T20:35:41.555Z,10.23
2022-12-14T20:38:08.435Z,7.65
2022-12-14T20:40:38.830Z,6.72
2022-12-14T20:43:07.112Z,6.47
2022-12-14T20:45:41.433Z,7.20
2022-12-14T20:48:08.996Z,9.23
2022-12-14T20:50:41.751Z,7.93
2022-12-14T20:53:08.748Z,7.22
2022-12-14T20:55:36.206Z,5.13
2022-12-14T20:58:03.083Z,5.80
2022-12-14T21:00:30.005Z,6.30
2022-12-14T21:02:57.200Z,3.75
2022-12-14T21:05:24.811Z,5.43
2022-12-14T21:07:52.162Z,4.90
2022-12-14T21:10:19.077Z,5.13
2022-12-14T21:12:48.706Z,3.38
2022-12-14T21:15:16.088Z,4.90
2022-12-14T21:17:42.870Z,5.88
2022-12-14T21:20:11.534Z,4.85
2022-12-14T21:22:38.841Z,3.45
2022-12-14T21:25:07.205Z,4.80
2022-12-14T21:27:38.360Z,4.55
2022-12-14T21:30:10.136Z,3.97
2022-12-14T21:32:38.211Z,3.13
2022-12-14T21:35:05.969Z,4.47
2022-12-14T21:37:32.929Z,2.72
2022-12-14T21:40:03.006Z,4.15
2022-12-14T21:42:29.795Z,3.63
2022-12-14T21:44:57.674Z,6.10
2022-12-14T21:47:29.742Z,4.97
2022-12-14T21:49:56.897Z,3.67
2022-12-14T21:52:26.005Z,5.78
2022-12-14T21:54:52.806Z,3.22
2022-12-14T21:57:40.647Z,5.60
2022-12-14T22:00:09.167Z,6.38
2022-12-14T22:02:36.076Z,5.00
2022-12-14T22:05:03.000Z,4.60
2022-12-14T22:07:32.317Z,6.80
2022-12-14T22:09:59.145Z,6.72
2022-12-14T22:12:26.436Z,5.90
2022-12-14T22:14:53.293Z,6.15
2022-12-14T22:17:20.101Z,5.93
2022-12-14T22:19:48.485Z,5.53
2022-12-14T22:22:16.880Z,5.97
2022-12-14T22:24:44.945Z,4.53
2022-12-14T22:27:13.029Z,4.63
2022-12-14T22:29:40.317Z,4.40
2022-12-14T22:32:07.540Z,4.15
2022-12-14T22:34:34.611Z,4.38
2022-12-14T22:37:01.773Z,3.00
2022-12-14T22:39:28.693Z,3.33
2022-12-14T22:41:55.458Z,4.03
2022-12-14T22:44:22.248Z,4.85
2022-12-14T22:46:49.993Z,5.65
2022-12-14T22:49:19.369Z,5.47
2022-12-14T22:51:47.193Z,6.90
2022-12-14T22:54:26.849Z,6.93
2022-12-14T22:57:15.223Z,6.55
2022-12-14T22:59:53.157Z,3.97
2022-12-14T23:02:20.107Z,5.47
2022-12-14T23:04:47.034Z,3.13
2022-12-14T23:07:16.954Z,6.43
2022-12-14T23:10:02.184Z,6.07
2022-12-14T23:12:47.881Z,7.15
2022-12-14T23:15:33.404Z,6.53
2022-12-14T23:18:26.037Z,5.95
2022-12-14T23:21:11.993Z,5.72
2022-12-14T23:23:58.576Z,5.78
2022-12-14T23:26:44.175Z,6.32
2022-12-14T23:29:30.404Z,9.35
2022-12-14T23:32:16.959Z,8.25
2022-12-14T23:35:02.556Z,7.10
2022-12-14T23:37:48.030Z,7.75
2022-12-14T23:40:33.546Z,8.32
2022-12-14T23:43:27.229Z,5.35
2022-12-14T23:46:12.743Z,5.78
2022-12-14T23:48:58.094Z,4.22
2022-12-14T23:51:43.693Z,7.05
2022-12-14T23:54:28.993Z,11.45
2022-12-14T23:57:14.471Z,11.20
